sensor_id;sensor_type;location;lat;lon;timestamp;P1;durP1;ratioP1;P2;durP2;ratioP2
2338;SDS011;1180;51.438;6.978;2022-08-19T00:00:44;7.23;;;6.53;;
2338;SDS011;1180;51.438;6.978;2022-08-19T00:03:10;6.60;;;6.10;;
2338;SDS011;1180;51.438;6.978;2022-08-19T00:05:35;7.30;;;6.57;;
2338;SDS011;1180;51.438;6.978;2022-08-19T00:08:01;7.87;;;5.73;;
2338;SDS011;1180;51.438;6.978;2022-08-19T00:10:27;6.80;;;6.10;;
2338;SDS011;1180;51.438;6.978;2022-08-19T00:12:53;5.53;;;5.03;;
2338;SDS011;1180;51.438;6.978;2022-08-19T00:15:19;5.70;;;5.20;;
2338;SDS011;1180;51.438;6.978;2022-08-19T00:17:45;7.50;;;5.47;;
2338;SDS011;1180;51.438;6.978;2022-08-19T00:20:12;6.03;;;5.20;;
2338;SDS011;1180;51.438;6.978;2022-08-19T00:22:42;6.73;;;6.00;;
2338;SDS011;1180;51.438;6.978;2022-08-19T00:25:09;7.67;;;5.67;;
2338;SDS011;1180;51.438;6.978;2022-08-19T00:27:35;5.30;;;4.80;;
2338;SDS011;1180;51.438;6.978;2022-08-19T00:30:01;6.27;;;5.77;;
2338;SDS011;1180;51.438;6.978;2022-08-19T00:32:29;6.20;;;5.60;;
2338;SDS011;1180;51.438;6.978;2022-08-19T00:34:54;6.50;;;5.80;;
2338;SDS011;1180;51.438;6.978;2022-08-19T00:37:21;8.40;;;6.63;;
2338;SDS011;1180;51.438;6.978;2022-08-19T00:39:48;6.60;;;6.00;;
2338;SDS011;1180;51.438;6.978;2022-08-19T00:42:14;5.90;;;5.40;;
2338;SDS011;1180;51.438;6.978;2022-08-19T00:44:40;6.40;;;5.90;;
2338;SDS011;1180;51.438;6.978;2022-08-19T00:47:06;8.70;;;6.17;;
2338;SDS011;1180;51.438;6.978;2022-08-19T00:49:35;5.93;;;5.47;;
2338;SDS011;1180;51.438;6.978;2022-08-19T00:52:03;6.93;;;6.43;;
2338;SDS011;1180;51.438;6.978;2022-08-19T00:54:34;7.43;;;6.77;;
2338;SDS011;1180;51.438;6.978;2022-08-19T00:57:01;7.40;;;6.70;;
2338;SDS011;1180;51.438;6.978;2022-08-19T00:59:31;9.23;;;6.90;;
2338;SDS011;1180;51.438;6.978;2022-08-19T01:02:00;7.43;;;6.80;;
2338;SDS011;1180;51.438;6.978;2022-08-19T01:04:26;6.73;;;6.13;;
2338;SDS011;1180;51.438;6.978;2022-08-19T01:06:51;7.30;;;6.70;;
2338;SDS011;1180;51.438;6.978;2022-08-19T01:09:16;7.20;;;6.60;;
2338;SDS011;1180;51.438;6.978;2022-08-19T01:11:43;7.70;;;7.00;;
2338;SDS011;1180;51.438;6.978;2022-08-19T01:14:10;7.20;;;6.60;;
2338;SDS011;1180;51.438;6.978;2022-08-19T01:16:37;6.93;;;6.33;;
2338;SDS011;1180;51.438;6.978;2022-08-19T01:19:09;6.43;;;5.80;;
2338;SDS011;1180;51.438;6.978;2022-08-19T01:21:55;6.97;;;6.37;;
2338;SDS011;1180;51.438;6.978;2022-08-19T01:24:27;7.13;;;6.57;;
2338;SDS011;1180;51.438;6.978;2022-08-19T01:26:52;7.23;;;6.57;;
2338;SDS011;1180;51.438;6.978;2022-08-19T01:29:18;7.20;;;6.70;;
2338;SDS011;1180;51.438;6.978;2022-08-19T01:31:43;7.00;;;6.40;;
2338;SDS011;1180;51.438;6.978;2022-08-19T01:34:09;7.40;;;6.70;;
2338;SDS011;1180;51.438;6.978;2022-08-19T01:39:17;7.80;;;7.20;;
2338;SDS011;1180;51.438;6.978;2022-08-19T01:41:45;9.57;;;8.23;;
2338;SDS011;1180;51.438;6.978;2022-08-19T01:44:10;9.43;;;8.53;;
2338;SDS011;1180;51.438;6.978;2022-08-19T01:46:36;8.57;;;7.70;;
2338;SDS011;1180;51.438;6.978;2022-08-19T01:49:03;8.63;;;7.93;;
2338;SDS011;1180;51.438;6.978;2022-08-19T01:51:30;8.23;;;7.63;;
2338;SDS011;1180;51.438;6.978;2022-08-19T01:53:56;8.70;;;8.00;;
2338;SDS011;1180;51.438;6.978;2022-08-19T01:56:22;8.20;;;7.50;;
2338;SDS011;1180;51.438;6.978;2022-08-19T01:58:49;9.10;;;8.20;;
2338;SDS011;1180;51.438;6.978;2022-08-19T02:01:18;10.13;;;9.17;;
2338;SDS011;1180;51.438;6.978;2022-08-19T02:03:45;9.50;;;8.53;;
2338;SDS011;1180;51.438;6.978;2022-08-19T02:06:11;9.93;;;9.03;;
2338;SDS011;1180;51.438;6.978;2022-08-19T02:08:37;10.23;;;8.40;;
2338;SDS011;1180;51.438;6.978;2022-08-19T02:11:04;8.77;;;8.00;;
2338;SDS011;1180;51.438;6.978;2022-08-19T02:13:30;7.70;;;7.00;;
2338;SDS011;1180;51.438;6.978;2022-08-19T02:15:56;10.57;;;8.80;;
2338;SDS011;1180;51.438;6.978;2022-08-19T02:18:22;9.37;;;8.10;;
2338;SDS011;1180;51.438;6.978;2022-08-19T02:20:48;8.50;;;7.90;;
2338;SDS011;1180;51.438;6.978;2022-08-19T02:23:14;7.40;;;6.80;;
2338;SDS011;1180;51.438;6.978;2022-08-19T02:25:40;7.70;;;7.00;;
2338;SDS011;1180;51.438;6.978;2022-08-19T02:28:06;8.70;;;7.90;;
2338;SDS011;1180;51.438;6.978;2022-08-19T02:30:32;8.80;;;8.10;;
2338;SDS011;1180;51.438;6.978;2022-08-19T02:32:58;7.27;;;6.57;;
2338;SDS011;1180;51.438;6.978;2022-08-19T02:35:24;8.67;;;7.97;;
2338;SDS011;1180;51.438;6.978;2022-08-19T02:37:49;7.70;;;7.00;;
2338;SDS011;1180;51.438;6.978;2022-08-19T02:40:33;8.70;;;8.00;;
2338;SDS011;1180;51.438;6.978;2022-08-19T02:42:59;9.93;;;9.03;;
2338;SDS011;1180;51.438;6.978;2022-08-19T02:45:35;7.63;;;6.93;;
2338;SDS011;1180;51.438;6.978;2022-08-19T02:48:02;8.17;;;7.33;;
2338;SDS011;1180;51.438;6.978;2022-08-19T02:50:27;8.13;;;7.40;;
2338;SDS011;1180;51.438;6.978;2022-08-19T02:52:53;8.30;;;7.50;;
2338;SDS011;1180;51.438;6.978;2022-08-19T02:55:19;7.67;;;7.07;;
2338;SDS011;1180;51.438;6.978;2022-08-19T02:57:45;6.67;;;6.03;;
2338;SDS011;1180;51.438;6.978;2022-08-19T03:00:11;7.33;;;6.73;;
2338;SDS011;1180;51.438;6.978;2022-08-19T03:02:38;6.30;;;5.70;;
2338;SDS011;1180;51.438;6.978;2022-08-19T03:05:04;7.40;;;6.70;;
2338;SDS011;1180;51.438;6.978;2022-08-19T03:07:30;6.70;;;6.20;;
2338;SDS011;1180;51.438;6.978;2022-08-19T03:09:56;6.93;;;6.10;;
2338;SDS011;1180;51.438;6.978;2022-08-19T03:12:21;7.07;;;6.47;;
2338;SDS011;1180;51.438;6.978;2022-08-19T03:14:46;6.60;;;6.00;;
2338;SDS011;1180;51.438;6.978;2022-08-19T03:17:12;8.00;;;7.20;;
2338;SDS011;1180;51.438;6.978;2022-08-19T03:19:38;8.67;;;7.87;;
2338;SDS011;1180;51.438;6.978;2022-08-19T03:22:03;8.00;;;7.40;;
2338;SDS011;1180;51.438;6.978;2022-08-19T03:24:29;12.40;;;7.80;;
2338;SDS011;1180;51.438;6.978;2022-08-19T03:26:55;8.57;;;7.73;;
2338;SDS011;1180;51.438;6.978;2022-08-19T03:29:22;7.83;;;7.23;;
2338;SDS011;1180;51.438;6.978;2022-08-19T03:31:48;10.93;;;8.63;;
2338;SDS011;1180;51.438;6.978;2022-08-19T03:34:17;8.70;;;8.00;;
2338;SDS011;1180;51.438;6.978;2022-08-19T03:36:45;9.83;;;8.70;;
2338;SDS011;1180;51.438;6.978;2022-08-19T03:39:11;10.03;;;9.03;;
2338;SDS011;1180;51.438;6.978;2022-08-19T03:41:37;10.83;;;9.73;;
2338;SDS011;1180;51.438;6.978;2022-08-19T03:44:05;9.97;;;8.97;;
2338;SDS011;1180;51.438;6.978;2022-08-19T03:46:32;9.93;;;9.00;;
2338;SDS011;1180;51.438;6.978;2022-08-19T03:48:59;9.70;;;8.90;;
2338;SDS011;1180;51.438;6.978;2022-08-19T03:51:32;11.20;;;9.13;;
2338;SDS011;1180;51.438;6.978;2022-08-19T03:54:01;10.23;;;9.10;;
2338;SDS011;1180;51.438;6.978;2022-08-19T03:56:29;10.23;;;9.23;;
2338;SDS011;1180;51.438;6.978;2022-08-19T03:58:55;8.00;;;7.23;;
2338;SDS011;1180;51.438;6.978;2022-08-19T04:01:23;9.87;;;8.73;;
2338;SDS011;1180;51.438;6.978;2022-08-19T04:03:53;10.40;;;9.40;;
2338;SDS011;1180;51.438;6.978;2022-08-19T04:06:21;10.93;;;9.83;;
2338;SDS011;1180;51.438;6.978;2022-08-19T04:08:49;11.60;;;10.50;;
2338;SDS011;1180;51.438;6.978;2022-08-19T04:11:17;12.47;;;11.27;;
2338;SDS011;1180;51.438;6.978;2022-08-19T04:13:46;13.20;;;11.90;;
2338;SDS011;1180;51.438;6.978;2022-08-19T04:16:12;10.83;;;9.83;;
2338;SDS011;1180;51.438;6.978;2022-08-19T04:18:38;10.83;;;9.70;;
2338;SDS011;1180;51.438;6.978;2022-08-19T04:21:05;11.57;;;10.47;;
2338;SDS011;1180;51.438;6.978;2022-08-19T04:23:32;11.47;;;10.47;;
2338;SDS011;1180;51.438;6.978;2022-08-19T04:25:58;11.57;;;10.47;;
2338;SDS011;1180;51.438;6.978;2022-08-19T04:28:24;12.43;;;11.10;;
2338;SDS011;1180;51.438;6.978;2022-08-19T04:30:51;13.03;;;11.73;;
2338;SDS011;1180;51.438;6.978;2022-08-19T04:33:19;12.77;;;11.67;;
2338;SDS011;1180;51.438;6.978;2022-08-19T04:35:47;13.10;;;11.90;;
2338;SDS011;1180;51.438;6.978;2022-08-19T04:38:15;15.00;;;13.60;;
2338;SDS011;1180;51.438;6.978;2022-08-19T04:40:43;18.73;;;13.03;;
2338;SDS011;1180;51.438;6.978;2022-08-19T04:43:29;13.07;;;11.87;;
2338;SDS011;1180;51.438;6.978;2022-08-19T04:45:55;15.67;;;14.27;;
2338;SDS011;1180;51.438;6.978;2022-08-19T04:48:21;16.30;;;14.60;;
2338;SDS011;1180;51.438;6.978;2022-08-19T04:50:55;15.63;;;14.17;;
2338;SDS011;1180;51.438;6.978;2022-08-19T04:53:26;16.43;;;14.70;;
2338;SDS011;1180;51.438;6.978;2022-08-19T04:55:53;17.00;;;15.30;;
2338;SDS011;1180;51.438;6.978;2022-08-19T04:58:22;16.17;;;14.57;;
2338;SDS011;1180;51.438;6.978;2022-08-19T05:00:52;17.17;;;15.50;;
2338;SDS011;1180;51.438;6.978;2022-08-19T05:03:18;15.00;;;13.47;;
2338;SDS011;1180;51.438;6.978;2022-08-19T05:05:45;15.07;;;13.53;;
2338;SDS011;1180;51.438;6.978;2022-08-19T05:08:13;15.60;;;14.00;;
2338;SDS011;1180;51.438;6.978;2022-08-19T05:10:50;16.43;;;14.87;;
2338;SDS011;1180;51.438;6.978;2022-08-19T05:13:18;13.90;;;12.57;;
2338;SDS011;1180;51.438;6.978;2022-08-19T05:15:45;16.83;;;15.13;;
2338;SDS011;1180;51.438;6.978;2022-08-19T05:18:22;15.50;;;14.03;;
2338;SDS011;1180;51.438;6.978;2022-08-19T05:21:07;15.07;;;13.77;;
2338;SDS011;1180;51.438;6.978;2022-08-19T05:23:53;16.47;;;14.87;;
2338;SDS011;1180;51.438;6.978;2022-08-19T05:26:18;15.43;;;14.07;;
2338;SDS011;1180;51.438;6.978;2022-08-19T05:28:43;15.90;;;14.40;;
2338;SDS011;1180;51.438;6.978;2022-08-19T05:31:09;14.73;;;13.40;;
2338;SDS011;1180;51.438;6.978;2022-08-19T05:33:34;14.47;;;13.07;;
2338;SDS011;1180;51.438;6.978;2022-08-19T05:36:00;16.33;;;14.63;;
2338;SDS011;1180;51.438;6.978;2022-08-19T05:38:27;15.80;;;14.30;;
2338;SDS011;1180;51.438;6.978;2022-08-19T05:40:53;13.50;;;12.03;;
2338;SDS011;1180;51.438;6.978;2022-08-19T05:43:18;15.10;;;13.70;;
2338;SDS011;1180;51.438;6.978;2022-08-19T05:45:44;14.63;;;13.20;;
2338;SDS011;1180;51.438;6.978;2022-08-19T05:48:10;15.53;;;14.00;;
2338;SDS011;1180;51.438;6.978;2022-08-19T05:50:37;15.47;;;14.00;;
2338;SDS011;1180;51.438;6.978;2022-08-19T05:53:05;14.83;;;12.87;;
2338;SDS011;1180;51.438;6.978;2022-08-19T05:55:31;17.83;;;15.13;;
2338;SDS011;1180;51.438;6.978;2022-08-19T05:57:57;16.50;;;14.83;;
2338;SDS011;1180;51.438;6.978;2022-08-19T06:00:22;16.83;;;15.33;;
2338;SDS011;1180;51.438;6.978;2022-08-19T06:02:48;18.40;;;16.50;;
2338;SDS011;1180;51.438;6.978;2022-08-19T06:05:14;17.20;;;15.37;;
2338;SDS011;1180;51.438;6.978;2022-08-19T06:07:39;15.87;;;14.37;;
2338;SDS011;1180;51.438;6.978;2022-08-19T06:10:06;18.30;;;16.50;;
2338;SDS011;1180;51.438;6.978;2022-08-19T06:12:33;18.07;;;16.30;;
2338;SDS011;1180;51.438;6.978;2022-08-19T06:15:00;19.10;;;17.10;;
2338;SDS011;1180;51.438;6.978;2022-08-19T06:17:32;18.03;;;16.13;;
2338;SDS011;1180;51.438;6.978;2022-08-19T06:19:59;18.20;;;16.30;;
2338;SDS011;1180;51.438;6.978;2022-08-19T06:22:25;21.70;;;19.50;;
2338;SDS011;1180;51.438;6.978;2022-08-19T06:24:51;16.93;;;15.20;;
2338;SDS011;1180;51.438;6.978;2022-08-19T06:27:18;18.50;;;16.80;;
2338;SDS011;1180;51.438;6.978;2022-08-19T06:29:45;21.53;;;19.23;;
2338;SDS011;1180;51.438;6.978;2022-08-19T06:32:11;22.07;;;19.90;;
2338;SDS011;1180;51.438;6.978;2022-08-19T06:34:39;23.50;;;21.20;;
2338;SDS011;1180;51.438;6.978;2022-08-19T06:37:05;22.83;;;20.57;;
2338;SDS011;1180;51.438;6.978;2022-08-19T06:39:34;26.03;;;23.23;;
2338;SDS011;1180;51.438;6.978;2022-08-19T06:42:03;27.87;;;24.87;;
2338;SDS011;1180;51.438;6.978;2022-08-19T06:44:37;27.90;;;24.10;;
2338;SDS011;1180;51.438;6.978;2022-08-19T06:47:06;28.17;;;25.47;;
2338;SDS011;1180;51.438;6.978;2022-08-19T06:49:33;28.33;;;25.57;;
2338;SDS011;1180;51.438;6.978;2022-08-19T06:51:59;27.67;;;24.97;;
2338;SDS011;1180;51.438;6.978;2022-08-19T06:54:26;29.37;;;26.40;;
2338;SDS011;1180;51.438;6.978;2022-08-19T06:56:54;29.53;;;26.60;;
2338;SDS011;1180;51.438;6.978;2022-08-19T06:59:21;28.27;;;25.57;;
2338;SDS011;1180;51.438;6.978;2022-08-19T07:01:52;34.70;;;31.10;;
2338;SDS011;1180;51.438;6.978;2022-08-19T07:04:23;29.53;;;26.53;;
2338;SDS011;1180;51.438;6.978;2022-08-19T07:06:56;36.50;;;30.30;;
2338;SDS011;1180;51.438;6.978;2022-08-19T07:09:33;30.93;;;27.80;;
2338;SDS011;1180;51.438;6.978;2022-08-19T07:11:59;33.00;;;29.60;;
2338;SDS011;1180;51.438;6.978;2022-08-19T07:14:26;31.27;;;28.17;;
2338;SDS011;1180;51.438;6.978;2022-08-19T07:16:53;32.30;;;29.10;;
2338;SDS011;1180;51.438;6.978;2022-08-19T07:19:20;29.03;;;26.27;;
2338;SDS011;1180;51.438;6.978;2022-08-19T07:21:47;30.67;;;27.57;;
2338;SDS011;1180;51.438;6.978;2022-08-19T07:24:18;29.00;;;26.30;;
2338;SDS011;1180;51.438;6.978;2022-08-19T07:26:44;28.73;;;25.90;;
2338;SDS011;1180;51.438;6.978;2022-08-19T07:29:10;32.70;;;29.30;;
2338;SDS011;1180;51.438;6.978;2022-08-19T07:31:36;33.97;;;30.37;;
2338;SDS011;1180;51.438;6.978;2022-08-19T07:34:05;31.50;;;27.00;;
2338;SDS011;1180;51.438;6.978;2022-08-19T07:36:37;34.97;;;31.37;;
2338;SDS011;1180;51.438;6.978;2022-08-19T07:39:05;33.80;;;30.20;;
2338;SDS011;1180;51.438;6.978;2022-08-19T07:41:34;33.97;;;30.50;;
2338;SDS011;1180;51.438;6.978;2022-08-19T07:44:00;35.77;;;32.00;;
2338;SDS011;1180;51.438;6.978;2022-08-19T07:46:28;34.87;;;31.27;;
2338;SDS011;1180;51.438;6.978;2022-08-19T07:48:57;35.10;;;31.50;;
2338;SDS011;1180;51.438;6.978;2022-08-19T07:51:23;34.07;;;30.67;;
2338;SDS011;1180;51.438;6.978;2022-08-19T07:53:49;37.43;;;33.77;;
2338;SDS011;1180;51.438;6.978;2022-08-19T07:56:15;39.60;;;35.60;;
2338;SDS011;1180;51.438;6.978;2022-08-19T07:58:42;37.80;;;34.00;;
2338;SDS011;1180;51.438;6.978;2022-08-19T08:01:12;35.07;;;31.60;;
2338;SDS011;1180;51.438;6.978;2022-08-19T08:03:40;38.43;;;34.43;;
2338;SDS011;1180;51.438;6.978;2022-08-19T08:06:24;42.23;;;33.87;;
2338;SDS011;1180;51.438;6.978;2022-08-19T08:09:08;35.43;;;31.90;;
2338;SDS011;1180;51.438;6.978;2022-08-19T08:11:45;36.07;;;32.37;;
2338;SDS011;1180;51.438;6.978;2022-08-19T08:14:22;38.30;;;34.30;;
2338;SDS011;1180;51.438;6.978;2022-08-19T08:16:57;37.73;;;33.80;;
2338;SDS011;1180;51.438;6.978;2022-08-19T08:19:24;38.13;;;34.17;;
2338;SDS011;1180;51.438;6.978;2022-08-19T08:21:53;33.80;;;30.30;;
2338;SDS011;1180;51.438;6.978;2022-08-19T08:24:20;35.93;;;32.43;;
2338;SDS011;1180;51.438;6.978;2022-08-19T08:26:45;35.53;;;32.03;;
2338;SDS011;1180;51.438;6.978;2022-08-19T08:29:11;32.03;;;28.83;;
2338;SDS011;1180;51.438;6.978;2022-08-19T08:31:39;32.57;;;29.27;;
2338;SDS011;1180;51.438;6.978;2022-08-19T08:34:05;30.27;;;27.23;;
2338;SDS011;1180;51.438;6.978;2022-08-19T08:36:31;32.43;;;29.00;;
2338;SDS011;1180;51.438;6.978;2022-08-19T08:38:58;30.70;;;27.60;;
2338;SDS011;1180;51.438;6.978;2022-08-19T08:41:44;32.70;;;28.30;;
2338;SDS011;1180;51.438;6.978;2022-08-19T08:47:04;30.90;;;27.60;;
2338;SDS011;1180;51.438;6.978;2022-08-19T08:54:39;27.97;;;24.63;;
2338;SDS011;1180;51.438;6.978;2022-08-19T08:57:10;25.97;;;23.37;;
2338;SDS011;1180;51.438;6.978;2022-08-19T08:59:40;24.90;;;22.63;;
2338;SDS011;1180;51.438;6.978;2022-08-19T09:02:08;23.33;;;20.03;;
2338;SDS011;1180;51.438;6.978;2022-08-19T09:04:34;22.97;;;20.50;;
2338;SDS011;1180;51.438;6.978;2022-08-19T09:07:10;22.37;;;20.17;;
2338;SDS011;1180;51.438;6.978;2022-08-19T09:09:51;17.77;;;15.97;;
2338;SDS011;1180;51.438;6.978;2022-08-19T09:15:29;23.97;;;20.17;;
2338;SDS011;1180;51.438;6.978;2022-08-19T09:18:07;23.53;;;21.10;;
2338;SDS011;1180;51.438;6.978;2022-08-19T09:20:33;21.30;;;19.17;;
2338;SDS011;1180;51.438;6.978;2022-08-19T09:22:59;17.30;;;15.70;;
2338;SDS011;1180;51.438;6.978;2022-08-19T09:25:25;21.20;;;19.30;;
2338;SDS011;1180;51.438;6.978;2022-08-19T09:27:51;26.63;;;19.10;;
2338;SDS011;1180;51.438;6.978;2022-08-19T09:30:26;16.87;;;15.03;;
2338;SDS011;1180;51.438;6.978;2022-08-19T09:32:53;13.97;;;12.60;;
2338;SDS011;1180;51.438;6.978;2022-08-19T09:35:20;12.10;;;11.00;;
2338;SDS011;1180;51.438;6.978;2022-08-19T09:37:47;14.77;;;12.87;;
2338;SDS011;1180;51.438;6.978;2022-08-19T09:40:14;12.80;;;11.67;;
2338;SDS011;1180;51.438;6.978;2022-08-19T09:42:41;14.10;;;12.80;;
2338;SDS011;1180;51.438;6.978;2022-08-19T09:45:08;13.67;;;12.40;;
2338;SDS011;1180;51.438;6.978;2022-08-19T09:47:34;11.90;;;10.90;;
2338;SDS011;1180;51.438;6.978;2022-08-19T09:50:03;15.90;;;13.10;;
2338;SDS011;1180;51.438;6.978;2022-08-19T09:52:30;16.20;;;14.70;;
2338;SDS011;1180;51.438;6.978;2022-08-19T09:54:56;14.90;;;13.37;;
2338;SDS011;1180;51.438;6.978;2022-08-19T09:57:21;18.33;;;16.60;;
2338;SDS011;1180;51.438;6.978;2022-08-19T09:59:46;18.80;;;17.00;;
2338;SDS011;1180;51.438;6.978;2022-08-19T10:02:12;20.90;;;18.83;;
2338;SDS011;1180;51.438;6.978;2022-08-19T10:04:38;18.97;;;17.27;;
2338;SDS011;1180;51.438;6.978;2022-08-19T10:07:22;17.87;;;16.03;;
2338;SDS011;1180;51.438;6.978;2022-08-19T10:09:47;18.60;;;16.80;;
2338;SDS011;1180;51.438;6.978;2022-08-19T10:12:12;19.77;;;17.80;;
2338;SDS011;1180;51.438;6.978;2022-08-19T10:14:40;22.63;;;20.57;;
2338;SDS011;1180;51.438;6.978;2022-08-19T10:17:06;21.27;;;19.17;;
2338;SDS011;1180;51.438;6.978;2022-08-19T10:19:31;24.03;;;21.60;;
2338;SDS011;1180;51.438;6.978;2022-08-19T10:22:04;22.97;;;20.70;;
2338;SDS011;1180;51.438;6.978;2022-08-19T10:24:31;22.27;;;20.23;;
2338;SDS011;1180;51.438;6.978;2022-08-19T10:26:58;22.53;;;20.33;;
2338;SDS011;1180;51.438;6.978;2022-08-19T10:29:25;20.27;;;18.13;;
2338;SDS011;1180;51.438;6.978;2022-08-19T10:31:55;21.83;;;18.87;;
2338;SDS011;1180;51.438;6.978;2022-08-19T10:34:22;21.30;;;19.40;;
2338;SDS011;1180;51.438;6.978;2022-08-19T10:36:49;24.23;;;21.93;;
2338;SDS011;1180;51.438;6.978;2022-08-19T10:39:14;22.17;;;19.90;;
2338;SDS011;1180;51.438;6.978;2022-08-19T10:41:40;25.27;;;22.87;;
2338;SDS011;1180;51.438;6.978;2022-08-19T10:44:09;23.53;;;21.07;;
2338;SDS011;1180;51.438;6.978;2022-08-19T10:46:38;20.47;;;18.57;;
2338;SDS011;1180;51.438;6.978;2022-08-19T10:49:07;25.83;;;23.33;;
2338;SDS011;1180;51.438;6.978;2022-08-19T10:51:34;24.43;;;22.00;;
2338;SDS011;1180;51.438;6.978;2022-08-19T10:54:18;24.73;;;21.70;;
2338;SDS011;1180;51.438;6.978;2022-08-19T10:56:44;18.53;;;16.83;;
2338;SDS011;1180;51.438;6.978;2022-08-19T10:59:16;18.10;;;16.40;;
2338;SDS011;1180;51.438;6.978;2022-08-19T11:01:44;21.97;;;20.03;;
2338;SDS011;1180;51.438;6.978;2022-08-19T11:04:11;20.77;;;18.87;;
2338;SDS011;1180;51.438;6.978;2022-08-19T11:06:38;19.53;;;17.63;;
2338;SDS011;1180;51.438;6.978;2022-08-19T11:09:06;19.97;;;18.07;;
2338;SDS011;1180;51.438;6.978;2022-08-19T11:11:32;20.33;;;18.33;;
2338;SDS011;1180;51.438;6.978;2022-08-19T11:14:06;17.87;;;16.20;;
2338;SDS011;1180;51.438;6.978;2022-08-19T11:16:39;19.90;;;18.00;;
2338;SDS011;1180;51.438;6.978;2022-08-19T11:19:05;20.30;;;18.40;;
2338;SDS011;1180;51.438;6.978;2022-08-19T11:21:34;20.80;;;18.73;;
2338;SDS011;1180;51.438;6.978;2022-08-19T11:24:15;15.67;;;14.20;;
2338;SDS011;1180;51.438;6.978;2022-08-19T11:26:45;17.10;;;15.70;;
2338;SDS011;1180;51.438;6.978;2022-08-19T11:29:14;16.30;;;14.80;;
2338;SDS011;1180;51.438;6.978;2022-08-19T11:31:42;16.10;;;14.70;;
2338;SDS011;1180;51.438;6.978;2022-08-19T11:34:10;15.17;;;13.87;;
2338;SDS011;1180;51.438;6.978;2022-08-19T11:36:39;15.63;;;14.37;;
2338;SDS011;1180;51.438;6.978;2022-08-19T11:39:07;15.40;;;14.10;;
2338;SDS011;1180;51.438;6.978;2022-08-19T11:41:34;13.17;;;11.97;;
2338;SDS011;1180;51.438;6.978;2022-08-19T11:43:59;14.60;;;11.97;;
2338;SDS011;1180;51.438;6.978;2022-08-19T11:46:27;11.80;;;10.60;;
2338;SDS011;1180;51.438;6.978;2022-08-19T11:48:54;11.27;;;10.20;;
2338;SDS011;1180;51.438;6.978;2022-08-19T11:51:23;14.63;;;13.30;;
2338;SDS011;1180;51.438;6.978;2022-08-19T11:53:50;13.27;;;12.07;;
2338;SDS011;1180;51.438;6.978;2022-08-19T11:56:16;13.03;;;11.83;;
2338;SDS011;1180;51.438;6.978;2022-08-19T11:58:43;11.23;;;10.33;;
2338;SDS011;1180;51.438;6.978;2022-08-19T12:01:10;10.83;;;9.83;;
2338;SDS011;1180;51.438;6.978;2022-08-19T12:03:40;9.93;;;9.03;;
2338;SDS011;1180;51.438;6.978;2022-08-19T12:06:06;10.27;;;9.37;;
2338;SDS011;1180;51.438;6.978;2022-08-19T12:08:33;9.60;;;8.70;;
2338;SDS011;1180;51.438;6.978;2022-08-19T12:10:58;10.07;;;8.93;;
2338;SDS011;1180;51.438;6.978;2022-08-19T12:13:26;11.20;;;9.57;;
2338;SDS011;1180;51.438;6.978;2022-08-19T12:15:53;8.70;;;7.97;;
2338;SDS011;1180;51.438;6.978;2022-08-19T12:18:19;10.20;;;9.30;;
2338;SDS011;1180;51.438;6.978;2022-08-19T12:20:45;10.33;;;9.20;;
2338;SDS011;1180;51.438;6.978;2022-08-19T12:23:12;8.17;;;7.37;;
2338;SDS011;1180;51.438;6.978;2022-08-19T12:25:43;9.33;;;8.53;;
2338;SDS011;1180;51.438;6.978;2022-08-19T12:28:14;8.00;;;7.40;;
2338;SDS011;1180;51.438;6.978;2022-08-19T12:30:40;7.50;;;6.83;;
2338;SDS011;1180;51.438;6.978;2022-08-19T12:33:06;8.40;;;7.70;;
2338;SDS011;1180;51.438;6.978;2022-08-19T12:35:32;9.60;;;7.20;;
2338;SDS011;1180;51.438;6.978;2022-08-19T12:37:58;8.17;;;7.37;;
2338;SDS011;1180;51.438;6.978;2022-08-19T12:40:24;8.23;;;7.43;;
2338;SDS011;1180;51.438;6.978;2022-08-19T12:42:50;6.73;;;6.10;;
2338;SDS011;1180;51.438;6.978;2022-08-19T12:45:16;8.60;;;7.83;;
2338;SDS011;1180;51.438;6.978;2022-08-19T12:47:41;8.00;;;7.20;;
2338;SDS011;1180;51.438;6.978;2022-08-19T12:50:08;7.30;;;6.57;;
2338;SDS011;1180;51.438;6.978;2022-08-19T12:52:34;6.97;;;6.37;;
2338;SDS011;1180;51.438;6.978;2022-08-19T12:55:06;6.40;;;5.90;;
2338;SDS011;1180;51.438;6.978;2022-08-19T12:57:32;5.80;;;5.30;;
2338;SDS011;1180;51.438;6.978;2022-08-19T13:00:04;5.17;;;4.80;;
2338;SDS011;1180;51.438;6.978;2022-08-19T13:02:37;7.17;;;6.50;;
2338;SDS011;1180;51.438;6.978;2022-08-19T13:05:03;5.90;;;5.43;;
2338;SDS011;1180;51.438;6.978;2022-08-19T13:07:31;5.97;;;5.10;;
2338;SDS011;1180;51.438;6.978;2022-08-19T13:09:56;5.67;;;5.17;;
2338;SDS011;1180;51.438;6.978;2022-08-19T13:12:22;5.37;;;4.87;;
2338;SDS011;1180;51.438;6.978;2022-08-19T13:14:49;5.90;;;5.30;;
2338;SDS011;1180;51.438;6.978;2022-08-19T13:17:15;7.20;;;6.23;;
2338;SDS011;1180;51.438;6.978;2022-08-19T13:19:41;7.23;;;5.70;;
2338;SDS011;1180;51.438;6.978;2022-08-19T13:22:07;6.10;;;5.50;;
2338;SDS011;1180;51.438;6.978;2022-08-19T13:24:32;6.77;;;5.23;;
2338;SDS011;1180;51.438;6.978;2022-08-19T13:26:58;7.77;;;5.20;;
2338;SDS011;1180;51.438;6.978;2022-08-19T13:29:25;6.80;;;6.00;;
2338;SDS011;1180;51.438;6.978;2022-08-19T13:32:09;7.60;;;5.33;;
2338;SDS011;1180;51.438;6.978;2022-08-19T13:34:53;5.20;;;4.80;;
2338;SDS011;1180;51.438;6.978;2022-08-19T13:37:18;6.10;;;5.60;;
2338;SDS011;1180;51.438;6.978;2022-08-19T13:40:04;4.77;;;4.37;;
2338;SDS011;1180;51.438;6.978;2022-08-19T13:42:30;4.77;;;4.37;;
2338;SDS011;1180;51.438;6.978;2022-08-19T13:44:56;5.70;;;5.20;;
2338;SDS011;1180;51.438;6.978;2022-08-19T13:47:21;5.20;;;4.33;;
2338;SDS011;1180;51.438;6.978;2022-08-19T13:49:47;7.40;;;5.37;;
2338;SDS011;1180;51.438;6.978;2022-08-19T13:52:14;5.50;;;5.00;;
2338;SDS011;1180;51.438;6.978;2022-08-19T13:54:40;5.10;;;4.60;;
2338;SDS011;1180;51.438;6.978;2022-08-19T13:57:05;5.57;;;5.17;;
2338;SDS011;1180;51.438;6.978;2022-08-19T13:59:31;7.23;;;4.50;;
2338;SDS011;1180;51.438;6.978;2022-08-19T14:01:58;5.13;;;4.73;;
2338;SDS011;1180;51.438;6.978;2022-08-19T14:04:24;6.73;;;4.97;;
2338;SDS011;1180;51.438;6.978;2022-08-19T14:06:50;4.40;;;4.00;;
2338;SDS011;1180;51.438;6.978;2022-08-19T14:09:15;8.10;;;5.40;;
2338;SDS011;1180;51.438;6.978;2022-08-19T14:11:40;6.07;;;5.20;;
2338;SDS011;1180;51.438;6.978;2022-08-19T14:14:06;6.07;;;5.10;;
2338;SDS011;1180;51.438;6.978;2022-08-19T14:16:31;4.90;;;4.40;;
2338;SDS011;1180;51.438;6.978;2022-08-19T14:18:56;7.37;;;5.17;;
2338;SDS011;1180;51.438;6.978;2022-08-19T14:21:22;5.20;;;4.43;;
2338;SDS011;1180;51.438;6.978;2022-08-19T14:23:49;5.60;;;5.10;;
2338;SDS011;1180;51.438;6.978;2022-08-19T14:26:16;6.47;;;5.80;;
2338;SDS011;1180;51.438;6.978;2022-08-19T14:28:43;6.10;;;5.60;;
2338;SDS011;1180;51.438;6.978;2022-08-19T14:31:10;5.60;;;5.10;;
2338;SDS011;1180;51.438;6.978;2022-08-19T14:33:37;7.03;;;5.40;;
2338;SDS011;1180;51.438;6.978;2022-08-19T14:36:03;5.83;;;5.40;;
2338;SDS011;1180;51.438;6.978;2022-08-19T14:38:29;6.13;;;5.57;;
2338;SDS011;1180;51.438;6.978;2022-08-19T14:41:04;6.60;;;6.00;;
2338;SDS011;1180;51.438;6.978;2022-08-19T14:43:32;6.93;;;6.33;;
2338;SDS011;1180;51.438;6.978;2022-08-19T14:45:58;7.03;;;5.00;;
2338;SDS011;1180;51.438;6.978;2022-08-19T14:48:23;5.43;;;4.90;;
2338;SDS011;1180;51.438;6.978;2022-08-19T14:50:49;5.63;;;5.17;;
2338;SDS011;1180;51.438;6.978;2022-08-19T14:53:15;7.03;;;4.80;;
2338;SDS011;1180;51.438;6.978;2022-08-19T14:55:42;9.93;;;6.10;;
2338;SDS011;1180;51.438;6.978;2022-08-19T14:58:09;6.77;;;6.17;;
2338;SDS011;1180;51.438;6.978;2022-08-19T15:00:35;7.47;;;6.50;;
2338;SDS011;1180;51.438;6.978;2022-08-19T15:03:01;7.20;;;6.63;;
2338;SDS011;1180;51.438;6.978;2022-08-19T15:05:26;6.73;;;6.13;;
2338;SDS011;1180;51.438;6.978;2022-08-19T15:07:52;6.43;;;5.93;;
2338;SDS011;1180;51.438;6.978;2022-08-19T15:10:19;7.00;;;6.50;;
2338;SDS011;1180;51.438;6.978;2022-08-19T15:12:46;6.30;;;5.60;;
2338;SDS011;1180;51.438;6.978;2022-08-19T15:15:13;7.37;;;5.60;;
2338;SDS011;1180;51.438;6.978;2022-08-19T15:17:42;6.23;;;5.30;;